sensor_id;sensor_type;location;lat;lon;timestamp;pressure;altitude;pressure_sealevel;temperature;humidity
85458;BME280;75848;42.706;23.292;2024-02-26T00:00:00;94643.50;;;8.46;73.83
85458;BME280;75848;42.706;23.292;2024-02-26T00:02:25;94657.34;;;8.48;73.95
85458;BME280;75848;42.706;23.292;2024-02-26T00:04:51;94641.00;;;8.35;74.43
85458;BME280;75848;42.706;23.292;2024-02-26T00:07:17;94647.88;;;8.40;73.83
85458;BME280;75848;42.706;23.292;2024-02-26T00:09:42;94646.00;;;8.37;74.61
85458;BME280;75848;42.706;23.292;2024-02-26T00:12:08;94642.38;;;8.43;73.41
85458;BME280;75848;42.706;23.292;2024-02-26T00:14:33;94640.03;;;8.45;73.98
85458;BME280;75848;42.706;23.292;2024-02-26T00:16:59;94637.59;;;8.31;73.77
85458;BME280;75848;42.706;23.292;2024-02-26T00:19:25;94632.59;;;8.30;74.60
85458;BME280;75848;42.706;23.292;2024-02-26T00:21:51;94638.63;;;8.37;74.38
85458;BME280;75848;42.706;23.292;2024-02-26T00:24:19;94629.47;;;8.31;74.39
85458;BME280;75848;42.706;23.292;2024-02-26T00:26:45;94634.41;;;8.36;74.42
85458;BME280;75848;42.706;23.292;2024-02-26T00:29:10;94619.09;;;8.30;74.31
85458;BME280;75848;42.706;23.292;2024-02-26T00:31:36;94627.97;;;8.30;74.21
85458;BME280;75848;42.706;23.292;2024-02-26T00:34:03;94630.44;;;8.02;75.82
85458;BME280;75848;42.706;23.292;2024-02-26T00:36:28;94632.22;;;8.08;75.16
85458;BME280;75848;42.706;23.292;2024-02-26T00:38:55;94629.88;;;8.10;75.48
85458;BME280;75848;42.706;23.292;2024-02-26T00:41:22;94625.84;;;8.18;74.87
85458;BME280;75848;42.706;23.292;2024-02-26T00:43:48;94613.75;;;8.26;74.60
85458;BME280;75848;42.706;23.292;2024-02-26T00:46:14;94619.22;;;8.23;74.65
85458;BME280;75848;42.706;23.292;2024-02-26T00:48:39;94608.59;;;8.12;75.30
85458;BME280;75848;42.706;23.292;2024-02-26T00:51:05;94616.22;;;8.17;74.88
85458;BME280;75848;42.706;23.292;2024-02-26T00:53:31;94601.81;;;8.04;75.50
85458;BME280;75848;42.706;23.292;2024-02-26T00:55:57;94604.38;;;8.11;74.98
85458;BME280;75848;42.706;23.292;2024-02-26T00:58:25;94607.44;;;8.13;75.83
85458;BME280;75848;42.706;23.292;2024-02-26T01:00:51;94609.03;;;8.30;74.27
85458;BME280;75848;42.706;23.292;2024-02-26T01:03:18;94599.19;;;8.20;74.89
85458;BME280;75848;42.706;23.292;2024-02-26T01:05:44;94606.91;;;8.22;74.92
85458;BME280;75848;42.706;23.292;2024-02-26T01:08:10;94603.13;;;8.16;75.67
85458;BME280;75848;42.706;23.292;2024-02-26T01:10:35;94595.91;;;8.09;75.83
85458;BME280;75848;42.706;23.292;2024-02-26T01:13:01;94604.00;;;8.09;75.40
85458;BME280;75848;42.706;23.292;2024-02-26T01:15:27;94596.34;;;8.08;76.22
85458;BME280;75848;42.706;23.292;2024-02-26T01:17:54;94602.28;;;8.19;75.41
85458;BME280;75848;42.706;23.292;2024-02-26T01:20:20;94599.56;;;8.22;75.60
85458;BME280;75848;42.706;23.292;2024-02-26T01:22:46;94593.28;;;8.06;76.47
85458;BME280;75848;42.706;23.292;2024-02-26T01:25:12;94596.19;;;7.95;76.75
85458;BME280;75848;42.706;23.292;2024-02-26T01:27:38;94599.31;;;7.94;77.58
85458;BME280;75848;42.706;23.292;2024-02-26T01:30:04;94600.91;;;8.11;76.91
85458;BME280;75848;42.706;23.292;2024-02-26T01:32:31;94596.44;;;8.24;75.99
85458;BME280;75848;42.706;23.292;2024-02-26T01:34:59;94592.06;;;8.30;75.64
85458;BME280;75848;42.706;23.292;2024-02-26T01:37:24;94593.09;;;8.36;75.56
85458;BME280;75848;42.706;23.292;2024-02-26T01:39:50;94581.59;;;8.32;75.52
85458;BME280;75848;42.706;23.292;2024-02-26T01:42:15;94588.88;;;8.35;75.81
85458;BME280;75848;42.706;23.292;2024-02-26T01:44:41;94580.63;;;8.42;75.34
85458;BME280;75848;42.706;23.292;2024-02-26T01:47:09;94580.34;;;8.36;75.34
85458;BME280;75848;42.706;23.292;2024-02-26T01:49:36;94591.16;;;8.36;75.03
85458;BME280;75848;42.706;23.292;2024-02-26T01:52:02;94579.56;;;8.36;75.44
85458;BME280;75848;42.706;23.292;2024-02-26T01:54:29;94583.19;;;8.29;75.44
85458;BME280;75848;42.706;23.292;2024-02-26T01:56:56;94579.56;;;8.36;75.40
85458;BME280;75848;42.706;23.292;2024-02-26T01:59:22;94579.03;;;8.25;76.20
85458;BME280;75848;42.706;23.292;2024-02-26T02:01:52;94585.34;;;8.38;75.01
85458;BME280;75848;42.706;23.292;2024-02-26T02:04:20;94579.16;;;8.37;75.94
85458;BME280;75848;42.706;23.292;2024-02-26T02:06:47;94569.53;;;8.36;75.36
85458;BME280;75848;42.706;23.292;2024-02-26T02:09:13;94572.50;;;8.42;75.73
85458;BME280;75848;42.706;23.292;2024-02-26T02:11:39;94574.25;;;8.32;75.76
85458;BME280;75848;42.706;23.292;2024-02-26T02:14:05;94580.00;;;8.34;75.60
85458;BME280;75848;42.706;23.292;2024-02-26T02:16:32;94581.25;;;8.30;75.56
85458;BME280;75848;42.706;23.292;2024-02-26T02:18:58;94575.09;;;8.29;75.59
85458;BME280;75848;42.706;23.292;2024-02-26T02:21:24;94568.03;;;8.35;75.99
85458;BME280;75848;42.706;23.292;2024-02-26T02:23:50;94577.66;;;8.36;75.59
85458;BME280;75848;42.706;23.292;2024-02-26T02:26:16;94585.41;;;8.34;75.72
85458;BME280;75848;42.706;23.292;2024-02-26T02:28:43;94576.19;;;8.32;75.55
85458;BME280;75848;42.706;23.292;2024-02-26T02:31:10;94560.53;;;8.23;76.14
85458;BME280;75848;42.706;23.292;2024-02-26T02:33:36;94569.47;;;8.40;75.84
85458;BME280;75848;42.706;23.292;2024-02-26T02:36:02;94574.38;;;8.45;75.06
85458;BME280;75848;42.706;23.292;2024-02-26T02:38:28;94563.13;;;8.46;75.26
85458;BME280;75848;42.706;23.292;2024-02-26T02:40:55;94564.31;;;8.45;76.17
85458;BME280;75848;42.706;23.292;2024-02-26T02:43:21;94565.22;;;8.39;75.63
85458;BME280;75848;42.706;23.292;2024-02-26T02:45:46;94568.75;;;8.36;75.87
85458;BME280;75848;42.706;23.292;2024-02-26T02:48:12;94572.38;;;8.29;76.47
85458;BME280;75848;42.706;23.292;2024-02-26T02:50:38;94569.72;;;8.45;75.31
85458;BME280;75848;42.706;23.292;2024-02-26T02:53:04;94584.44;;;8.44;76.17
85458;BME280;75848;42.706;23.292;2024-02-26T02:55:31;94577.00;;;8.48;75.99
85458;BME280;75848;42.706;23.292;2024-02-26T02:57:56;94587.47;;;8.46;75.59
85458;BME280;75848;42.706;23.292;2024-02-26T03:00:22;94590.13;;;8.50;76.10
85458;BME280;75848;42.706;23.292;2024-02-26T03:02:50;94595.16;;;8.48;75.49
85458;BME280;75848;42.706;23.292;2024-02-26T03:05:17;94581.31;;;8.46;75.43
85458;BME280;75848;42.706;23.292;2024-02-26T03:07:43;94576.66;;;8.46;76.08
85458;BME280;75848;42.706;23.292;2024-02-26T03:10:08;94590.53;;;8.48;75.86
85458;BME280;75848;42.706;23.292;2024-02-26T03:12:34;94590.25;;;8.43;75.86
85458;BME280;75848;42.706;23.292;2024-02-26T03:15:01;94579.56;;;8.16;77.02
85458;BME280;75848;42.706;23.292;2024-02-26T03:17:30;94584.16;;;8.19;77.76
85458;BME280;75848;42.706;23.292;2024-02-26T03:19:57;94589.13;;;8.21;77.53
85458;BME280;75848;42.706;23.292;2024-02-26T03:22:23;94581.19;;;8.33;76.87
85458;BME280;75848;42.706;23.292;2024-02-26T03:24:49;94581.31;;;8.46;76.36
85458;BME280;75848;42.706;23.292;2024-02-26T03:27:15;94574.16;;;8.55;75.39
85458;BME280;75848;42.706;23.292;2024-02-26T03:29:45;94567.75;;;8.65;75.10
85458;BME280;75848;42.706;23.292;2024-02-26T03:32:11;94560.25;;;8.73;75.25
85458;BME280;75848;42.706;23.292;2024-02-26T03:34:37;94559.88;;;8.71;75.12
85458;BME280;75848;42.706;23.292;2024-02-26T03:37:04;94559.31;;;8.63;75.37
85458;BME280;75848;42.706;23.292;2024-02-26T03:39:31;94556.44;;;8.71;75.61
85458;BME280;75848;42.706;23.292;2024-02-26T03:41:57;94556.09;;;8.68;75.19
85458;BME280;75848;42.706;23.292;2024-02-26T03:44:22;94561.19;;;8.67;75.59
85458;BME280;75848;42.706;23.292;2024-02-26T03:46:48;94567.75;;;8.65;75.82
85458;BME280;75848;42.706;23.292;2024-02-26T03:49:13;94558.19;;;8.61;75.75
85458;BME280;75848;42.706;23.292;2024-02-26T03:51:39;94555.19;;;8.39;75.61
85458;BME280;75848;42.706;23.292;2024-02-26T03:54:04;94566.09;;;8.52;75.45
85458;BME280;75848;42.706;23.292;2024-02-26T03:56:32;94553.19;;;8.59;75.38
85458;BME280;75848;42.706;23.292;2024-02-26T03:58:58;94556.81;;;8.53;76.03
85458;BME280;75848;42.706;23.292;2024-02-26T04:01:25;94556.06;;;8.52;75.67
85458;BME280;75848;42.706;23.292;2024-02-26T04:03:50;94553.63;;;8.58;75.38
85458;BME280;75848;42.706;23.292;2024-02-26T04:06:18;94559.03;;;8.58;75.70
85458;BME280;75848;42.706;23.292;2024-02-26T04:08:46;94554.81;;;8.57;75.76
85458;BME280;75848;42.706;23.292;2024-02-26T04:11:12;94546.22;;;8.62;75.50
85458;BME280;75848;42.706;23.292;2024-02-26T04:13:38;94548.97;;;8.58;75.20
85458;BME280;75848;42.706;23.292;2024-02-26T04:16:06;94551.06;;;8.51;75.83
85458;BME280;75848;42.706;23.292;2024-02-26T04:18:33;94548.13;;;8.61;75.01
85458;BME280;75848;42.706;23.292;2024-02-26T04:20:59;94541.47;;;8.66;74.69
85458;BME280;75848;42.706;23.292;2024-02-26T04:23:24;94531.06;;;8.64;75.69
85458;BME280;75848;42.706;23.292;2024-02-26T04:25:50;94535.44;;;8.58;75.95
85458;BME280;75848;42.706;23.292;2024-02-26T04:28:16;94545.84;;;8.60;75.67
85458;BME280;75848;42.706;23.292;2024-02-26T04:30:43;94552.03;;;8.60;75.09
85458;BME280;75848;42.706;23.292;2024-02-26T04:33:08;94541.97;;;8.25;78.05
85458;BME280;75848;42.706;23.292;2024-02-26T04:35:34;94531.06;;;8.09;77.52
85458;BME280;75848;42.706;23.292;2024-02-26T04:38:02;94539.44;;;8.34;76.46
85458;BME280;75848;42.706;23.292;2024-02-26T04:40:28;94556.06;;;8.52;75.85
85458;BME280;75848;42.706;23.292;2024-02-26T04:42:54;94550.22;;;8.54;76.21
85458;BME280;75848;42.706;23.292;2024-02-26T04:45:20;94547.59;;;8.50;75.95
85458;BME280;75848;42.706;23.292;2024-02-26T04:47:46;94549.13;;;8.51;76.19
85458;BME280;75848;42.706;23.292;2024-02-26T04:50:14;94554.81;;;8.57;76.44
85458;BME280;75848;42.706;23.292;2024-02-26T04:52:40;94545.41;;;8.45;76.29
85458;BME280;75848;42.706;23.292;2024-02-26T04:55:06;94554.84;;;8.37;76.83
85458;BME280;75848;42.706;23.292;2024-02-26T04:57:32;94557.56;;;8.53;75.60
85458;BME280;75848;42.706;23.292;2024-02-26T04:59:58;94559.84;;;8.55;76.10
85458;BME280;75848;42.706;23.292;2024-02-26T05:02:24;94558.13;;;8.64;75.84
85458;BME280;75848;42.706;23.292;2024-02-26T05:04:50;94551.19;;;8.63;75.79
85458;BME280;75848;42.706;23.292;2024-02-26T05:07:15;94568.97;;;8.45;76.33
85458;BME280;75848;42.706;23.292;2024-02-26T05:09:43;94571.97;;;8.31;75.90
85458;BME280;75848;42.706;23.292;2024-02-26T05:12:09;94576.03;;;8.19;76.93
85458;BME280;75848;42.706;23.292;2024-02-26T05:14:35;94582.41;;;8.09;77.27
85458;BME280;75848;42.706;23.292;2024-02-26T05:17:00;94587.06;;;8.09;77.13
85458;BME280;75848;42.706;23.292;2024-02-26T05:19:26;94586.06;;;8.22;76.28
85458;BME280;75848;42.706;23.292;2024-02-26T05:21:52;94589.63;;;8.16;76.40
85458;BME280;75848;42.706;23.292;2024-02-26T05:24:17;94587.63;;;8.00;77.11
85458;BME280;75848;42.706;23.292;2024-02-26T05:26:44;94593.22;;;7.90;77.13
85458;BME280;75848;42.706;23.292;2024-02-26T05:29:10;94592.53;;;7.86;77.43
85458;BME280;75848;42.706;23.292;2024-02-26T05:31:36;94604.75;;;7.90;77.52
85458;BME280;75848;42.706;23.292;2024-02-26T05:34:01;94606.63;;;7.93;77.04
85458;BME280;75848;42.706;23.292;2024-02-26T05:36:27;94601.31;;;8.09;76.35
85458;BME280;75848;42.706;23.292;2024-02-26T05:38:58;94615.03;;;8.18;76.00
85458;BME280;75848;42.706;23.292;2024-02-26T05:41:24;94612.34;;;8.18;75.11
85458;BME280;75848;42.706;23.292;2024-02-26T05:43:52;94612.47;;;8.11;75.55
85458;BME280;75848;42.706;23.292;2024-02-26T05:46:21;94608.41;;;8.23;75.73
85458;BME280;75848;42.706;23.292;2024-02-26T05:48:49;94605.31;;;8.24;75.22
85458;BME280;75848;42.706;23.292;2024-02-26T05:51:15;94608.59;;;8.12;75.86
85458;BME280;75848;42.706;23.292;2024-02-26T05:53:43;94614.72;;;8.16;76.22
85458;BME280;75848;42.706;23.292;2024-02-26T05:56:10;94609.41;;;8.09;76.15
85458;BME280;75848;42.706;23.292;2024-02-26T05:58:38;94611.22;;;8.16;76.57
85458;BME280;75848;42.706;23.292;2024-02-26T06:01:04;94612.31;;;8.22;76.24
85458;BME280;75848;42.706;23.292;2024-02-26T06:03:29;94620.63;;;8.31;75.78
85458;BME280;75848;42.706;23.292;2024-02-26T06:05:55;94627.19;;;8.49;75.54
85458;BME280;75848;42.706;23.292;2024-02-26T06:08:20;94616.59;;;8.58;74.83
85458;BME280;75848;42.706;23.292;2024-02-26T06:10:46;94622.34;;;8.60;75.34
85458;BME280;75848;42.706;23.292;2024-02-26T06:13:11;94632.44;;;8.56;75.06
85458;BME280;75848;42.706;23.292;2024-02-26T06:15:37;94632.81;;;8.58;74.85
85458;BME280;75848;42.706;23.292;2024-02-26T06:18:03;94624.63;;;8.62;74.45
85458;BME280;75848;42.706;23.292;2024-02-26T06:20:28;94630.63;;;8.69;74.70
85458;BME280;75848;42.706;23.292;2024-02-26T06:22:55;94623.97;;;8.74;74.56
85458;BME280;75848;42.706;23.292;2024-02-26T06:25:21;94630.78;;;8.62;74.74
85458;BME280;75848;42.706;23.292;2024-02-26T06:27:46;94629.16;;;8.85;73.91
85458;BME280;75848;42.706;23.292;2024-02-26T06:30:12;94621.81;;;8.85;74.24
85458;BME280;75848;42.706;23.292;2024-02-26T06:32:38;94625.09;;;8.77;74.87
85458;BME280;75848;42.706;23.292;2024-02-26T06:35:07;94631.94;;;8.81;74.55
85458;BME280;75848;42.706;23.292;2024-02-26T06:37:35;94626.09;;;8.67;75.03
85458;BME280;75848;42.706;23.292;2024-02-26T06:40:00;94628.84;;;8.83;74.73
85458;BME280;75848;42.706;23.292;2024-02-26T06:42:29;94628.72;;;8.86;74.85
85458;BME280;75848;42.706;23.292;2024-02-26T06:44:55;94621.81;;;8.85;74.69
85458;BME280;75848;42.706;23.292;2024-02-26T06:47:21;94626.91;;;8.99;73.81
85458;BME280;75848;42.706;23.292;2024-02-26T06:49:46;94635.84;;;8.96;73.71
85458;BME280;75848;42.706;23.292;2024-02-26T06:52:12;94631.63;;;8.95;74.24
85458;BME280;75848;42.706;23.292;2024-02-26T06:54:38;94609.53;;;8.81;74.29
85458;BME280;75848;42.706;23.292;2024-02-26T06:57:09;94637.41;;;8.97;74.04
85458;BME280;75848;42.706;23.292;2024-02-26T06:59:34;94630.69;;;8.86;74.28
85458;BME280;75848;42.706;23.292;2024-02-26T07:02:01;94627.69;;;8.80;74.67
85458;BME280;75848;42.706;23.292;2024-02-26T07:04:27;94636.34;;;8.75;75.18
85458;BME280;75848;42.706;23.292;2024-02-26T07:06:54;94635.75;;;8.84;74.44
85458;BME280;75848;42.706;23.292;2024-02-26T07:09:21;94642.41;;;8.79;74.53
85458;BME280;75848;42.706;23.292;2024-02-26T07:11:47;94636.59;;;8.81;74.88
85458;BME280;75848;42.706;23.292;2024-02-26T07:14:17;94636.38;;;8.91;74.18
85458;BME280;75848;42.706;23.292;2024-02-26T07:16:42;94631.47;;;9.02;73.47
85458;BME280;75848;42.706;23.292;2024-02-26T07:19:08;94646.63;;;8.80;75.16
85458;BME280;75848;42.706;23.292;2024-02-26T07:21:35;94647.84;;;8.79;74.60
85458;BME280;75848;42.706;23.292;2024-02-26T07:24:02;94657.41;;;8.84;74.62
85458;BME280;75848;42.706;23.292;2024-02-26T07:26:29;94651.38;;;8.76;75.05
85458;BME280;75848;42.706;23.292;2024-02-26T07:28:56;94649.09;;;9.10;73.60
85458;BME280;75848;42.706;23.292;2024-02-26T07:31:22;94643.97;;;8.96;73.77
85458;BME280;75848;42.706;23.292;2024-02-26T07:33:50;94642.38;;;8.99;73.77
85458;BME280;75848;42.706;23.292;2024-02-26T07:36:16;94640.84;;;8.98;74.10
85458;BME280;75848;42.706;23.292;2024-02-26T07:38:44;94639.25;;;9.00;73.75
85458;BME280;75848;42.706;23.292;2024-02-26T07:41:13;94639.16;;;9.04;73.93
85458;BME280;75848;42.706;23.292;2024-02-26T07:43:41;94646.81;;;9.25;73.04
85458;BME280;75848;42.706;23.292;2024-02-26T07:46:10;94652.59;;;9.27;72.62
85458;BME280;75848;42.706;23.292;2024-02-26T07:48:36;94646.22;;;9.33;72.46
85458;BME280;75848;42.706;23.292;2024-02-26T07:51:04;94637.63;;;9.38;72.61
85458;BME280;75848;42.706;23.292;2024-02-26T07:53:32;94646.66;;;9.32;73.09
85458;BME280;75848;42.706;23.292;2024-02-26T07:56:01;94642.25;;;9.38;72.16
85458;BME280;75848;42.706;23.292;2024-02-26T07:58:26;94649.53;;;9.41;72.26
85458;BME280;75848;42.706;23.292;2024-02-26T08:00:52;94646.84;;;9.41;72.45
85458;BME280;75848;42.706;23.292;2024-02-26T08:03:19;94646.00;;;9.44;72.40
85458;BME280;75848;42.706;23.292;2024-02-26T08:05:51;94638.94;;;9.62;71.16
85458;BME280;75848;42.706;23.292;2024-02-26T08:08:18;94647.91;;;9.75;71.50
85458;BME280;75848;42.706;23.292;2024-02-26T08:10:44;94638.03;;;9.69;70.59
85458;BME280;75848;42.706;23.292;2024-02-26T08:13:09;94635.94;;;9.44;72.02
85458;BME280;75848;42.706;23.292;2024-02-26T08:15:37;94635.13;;;9.76;70.27
85458;BME280;75848;42.706;23.292;2024-02-26T08:18:04;94636.66;;;9.77;70.69
85458;BME280;75848;42.706;23.292;2024-02-26T08:20:31;94631.16;;;9.80;71.15
85458;BME280;75848;42.706;23.292;2024-02-26T08:22:59;94630.31;;;9.67;70.71
85458;BME280;75848;42.706;23.292;2024-02-26T08:25:24;94638.69;;;9.89;69.78
85458;BME280;75848;42.706;23.292;2024-02-26T08:27:51;94614.66;;;10.03;69.10
85458;BME280;75848;42.706;23.292;2024-02-26T08:30:18;94621.50;;;10.24;68.87
85458;BME280;75848;42.706;23.292;2024-02-26T08:32:48;94631.13;;;10.41;68.67
85458;BME280;75848;42.706;23.292;2024-02-26T08:35:14;94619.16;;;10.67;68.19
85458;BME280;75848;42.706;23.292;2024-02-26T08:37:44;94626.72;;;10.59;67.46
85458;BME280;75848;42.706;23.292;2024-02-26T08:40:17;94631.72;;;10.73;67.35
85458;BME280;75848;42.706;23.292;2024-02-26T08:42:46;94632.06;;;10.63;67.97
85458;BME280;75848;42.706;23.292;2024-02-26T08:45:13;94630.00;;;10.79;67.34
85458;BME280;75848;42.706;23.292;2024-02-26T08:47:47;94625.69;;;10.95;66.99
85458;BME280;75848;42.706;23.292;2024-02-26T08:50:18;94634.25;;;10.81;67.16
85458;BME280;75848;42.706;23.292;2024-02-26T08:52:46;94628.53;;;11.16;66.15
85458;BME280;75848;42.706;23.292;2024-02-26T08:55:24;94623.75;;;11.33;65.35
85458;BME280;75848;42.706;23.292;2024-02-26T08:57:50;94628.41;;;11.45;64.38
85458;BME280;75848;42.706;23.292;2024-02-26T09:00:17;94622.66;;;11.68;64.03
85458;BME280;75848;42.706;23.292;2024-02-26T09:02:44;94623.03;;;11.91;64.01
85458;BME280;75848;42.706;23.292;2024-02-26T09:05:11;94620.75;;;11.90;64.05
85458;BME280;75848;42.706;23.292;2024-02-26T09:07:39;94624.72;;;12.10;61.91
85458;BME280;75848;42.706;23.292;2024-02-26T09:10:05;94619.47;;;12.16;60.93
85458;BME280;75848;42.706;23.292;2024-02-26T09:12:31;94616.75;;;12.16;60.92
85458;BME280;75848;42.706;23.292;2024-02-26T09:15:00;94613.22;;;12.28;61.43
85458;BME280;75848;42.706;23.292;2024-02-26T09:17:27;94621.13;;;12.13;62.33
85458;BME280;75848;42.706;23.292;2024-02-26T09:19:55;94616.56;;;12.32;62.26
85458;BME280;75848;42.706;23.292;2024-02-26T09:22:24;94609.69;;;12.40;61.65
85458;BME280;75848;42.706;23.292;2024-02-26T09:24:52;94611.72;;;12.48;61.80
85458;BME280;75848;42.706;23.292;2024-02-26T09:27:20;94614.09;;;12.46;61.89
85458;BME280;75848;42.706;23.292;2024-02-26T09:29:45;94601.91;;;12.51;61.85
85458;BME280;75848;42.706;23.292;2024-02-26T09:32:19;94614.91;;;12.77;61.50
85458;BME280;75848;42.706;23.292;2024-02-26T09:34:45;94618.06;;;12.98;59.99
85458;BME280;75848;42.706;23.292;2024-02-26T09:37:12;94596.28;;;12.98;59.57
85458;BME280;75848;42.706;23.292;2024-02-26T09:39:39;94603.63;;;13.10;59.37
85458;BME280;75848;42.706;23.292;2024-02-26T09:42:05;94607.00;;;13.23;58.62
85458;BME280;75848;42.706;23.292;2024-02-26T09:44:36;94595.75;;;12.81;59.59
85458;BME280;75848;42.706;23.292;2024-02-26T09:47:09;94604.38;;;13.10;58.25
85458;BME280;75848;42.706;23.292;2024-02-26T09:49:39;94595.59;;;13.06;58.59
85458;BME280;75848;42.706;23.292;2024-02-26T09:52:08;94600.59;;;13.08;57.02
85458;BME280;75848;42.706;23.292;2024-02-26T09:54:36;94601.31;;;12.99;58.20
85458;BME280;75848;42.706;23.292;2024-02-26T09:57:03;94588.53;;;13.18;57.41
85458;BME280;75848;42.706;23.292;2024-02-26T10:00:17;94598.59;;;13.39;56.52
85458;BME280;75848;42.706;23.292;2024-02-26T10:02:47;94588.66;;;13.63;55.83
85458;BME280;75848;42.706;23.292;2024-02-26T10:05:19;94577.28;;;13.55;55.55
85458;BME280;75848;42.706;23.292;2024-02-26T10:07:46;94581.09;;;13.67;54.21
85458;BME280;75848;42.706;23.292;2024-02-26T10:10:14;94582.16;;;13.60;55.52
85458;BME280;75848;42.706;23.292;2024-02-26T10:12:42;94586.53;;;13.67;54.68
85458;BME280;75848;42.706;23.292;2024-02-26T10:15:09;94571.09;;;13.64;53.92
85458;BME280;75848;42.706;23.292;2024-02-26T10:17:38;94569.91;;;13.74;54.13
85458;BME280;75848;42.706;23.292;2024-02-26T10:20:20;94563.41;;;13.80;53.62
85458;BME280;75848;42.706;23.292;2024-02-26T10:22:47;94550.03;;;13.64;52.33
85458;BME280;75848;42.706;23.292;2024-02-26T10:25:17;94563.97;;;13.57;52.44
85458;BME280;75848;42.706;23.292;2024-02-26T10:27:43;94565.47;;;13.49;52.64
85458;BME280;75848;42.706;23.292;2024-02-26T10:30:22;94558.00;;;13.32;53.45
85458;BME280;75848;42.706;23.292;2024-02-26T10:32:49;94550.25;;;13.30;53.90
85458;BME280;75848;42.706;23.292;2024-02-26T10:35:17;94557.88;;;13.44;53.52
85458;BME280;75848;42.706;23.292;2024-02-26T10:37:46;94545.47;;;13.52;52.86
85458;BME280;75848;42.706;23.292;2024-02-26T10:40:14;94542.78;;;13.61;52.87
85458;BME280;75848;42.706;23.292;2024-02-26T10:42:44;94520.47;;;13.45;52.45
85458;BME280;75848;42.706;23.292;2024-02-26T10:45:28;94541.41;;;13.57;52.34
85458;BME280;75848;42.706;23.292;2024-02-26T10:47:55;94526.69;;;13.45;52.68
85458;BME280;75848;42.706;23.292;2024-02-26T10:50:22;94551.72;;;13.62;51.92
85458;BME280;75848;42.706;23.292;2024-02-26T10:52:50;94547.06;;;13.98;51.10
85458;BME280;75848;42.706;23.292;2024-02-26T10:55:22;94545.22;;;13.77;51.33
85458;BME280;75848;42.706;23.292;2024-02-26T10:57:50;94524.75;;;13.73;51.43
85458;BME280;75848;42.706;23.292;2024-02-26T11:00:19;94523.25;;;13.72;51.89
85458;BME280;75848;42.706;23.292;2024-02-26T11:02:50;94532.91;;;13.64;52.49
85458;BME280;75848;42.706;23.292;2024-02-26T11:05:19;94527.03;;;13.74;52.04
85458;BME280;75848;42.706;23.292;2024-02-26T11:07:48;94523.53;;;13.83;50.80
85458;BME280;75848;42.706;23.292;2024-02-26T11:10:16;94516.88;;;13.66;51.82
85458;BME280;75848;42.706;23.292;2024-02-26T11:12:59;94532.31;;;13.60;52.17
85458;BME280;75848;42.706;23.292;2024-02-26T11:15:48;94524.00;;;13.63;52.08
85458;BME280;75848;42.706;23.292;2024-02-26T11:18:19;94546.28;;;13.71;51.98
85458;BME280;75848;42.706;23.292;2024-02-26T11:20:46;94538.97;;;13.50;52.17
85458;BME280;75848;42.706;23.292;2024-02-26T11:23:13;94524.25;;;13.38;52.00
85458;BME280;75848;42.706;23.292;2024-02-26T11:25:48;94524.13;;;13.51;52.17
85458;BME280;75848;42.706;23.292;2024-02-26T11:28:17;94529.56;;;13.51;51.67
85458;BME280;75848;42.706;23.292;2024-02-26T11:30:51;94524.31;;;13.56;52.25
85458;BME280;75848;42.706;23.292;2024-02-26T11:33:19;94520.47;;;13.45;52.26
85458;BME280;75848;42.706;23.292;2024-02-26T11:35:47;94518.50;;;13.45;52.56
85458;BME280;75848;42.706;23.292;2024-02-26T11:38:25;94514.13;;;13.39;52.50
85458;BME280;75848;42.706;23.292;2024-02-26T11:40:56;94512.03;;;13.61;51.87
85458;BME280;75848;42.706;23.292;2024-02-26T11:43:51;94516.28;;;13.62;51.74
85458;BME280;75848;42.706;23.292;2024-02-26T11:46:32;94522.28;;;13.48;52.10
85458;BME280;75848;42.706;23.292;2024-02-26T11:49:29;94502.19;;;13.54;51.69
85458;BME280;75848;42.706;23.292;2024-02-26T11:51:53;94507.19;;;13.56;51.58
85458;BME280;75848;42.706;23.292;2024-02-26T11:54:40;94500.38;;;13.69;50.98
85458;BME280;75848;42.706;23.292;2024-02-26T11:57:41;94506.31;;;13.77;50.82
85458;BME280;75848;42.706;23.292;2024-02-26T12:00:14;94506.28;;;13.68;50.88
85458;BME280;75848;42.706;23.292;2024-02-26T12:03:01;94500.06;;;13.67;50.55
85458;BME280;75848;42.706;23.292;2024-02-26T12:05:34;94509.47;;;13.75;49.79
85458;BME280;75848;42.706;23.292;2024-02-26T12:08:07;94516.00;;;13.78;49.96
85458;BME280;75848;42.706;23.292;2024-02-26T12:10:35;94508.38;;;13.64;50.02
85458;BME280;75848;42.706;23.292;2024-02-26T12:13:16;94509.31;;;13.79;50.04
85458;BME280;75848;42.706;23.292;2024-02-26T12:15:43;94492.22;;;13.69;50.20
85458;BME280;75848;42.706;23.292;2024-02-26T12:18:10;94502.66;;;13.71;50.05
85458;BME280;75848;42.706;23.292;2024-02-26T12:20:38;94510.09;;;13.79;49.77
85458;BME280;75848;42.706;23.292;2024-02-26T12:23:04;94502.66;;;13.98;49.51
85458;BME280;75848;42.706;23.292;2024-02-26T12:25:32;94511.28;;;13.87;49.48
85458;BME280;75848;42.706;23.292;2024-02-26T12:27:59;94522.97;;;13.88;48.10
85458;BME280;75848;42.706;23.292;2024-02-26T12:30:26;94517.63;;;13.84;49.01
85458;BME280;75848;42.706;23.292;2024-02-26T12:32:57;94513.56;;;13.80;48.66
85458;BME280;75848;42.706;23.292;2024-02-26T12:35:28;94512.50;;;14.04;47.77
85458;BME280;75848;42.706;23.292;2024-02-26T12:38:00;94524.16;;;14.05;48.43
85458;BME280;75848;42.706;23.292;2024-02-26T12:40:49;94518.88;;;14.01;47.71
85458;BME280;75848;42.706;23.292;2024-02-26T12:43:19;94519.31;;;14.09;47.30
85458;BME280;75848;42.706;23.292;2024-02-26T12:45:49;94510.53;;;14.23;47.84
85458;BME280;75848;42.706;23.292;2024-02-26T12:48:18;94513.84;;;14.27;47.07
85458;BME280;75848;42.706;23.292;2024-02-26T12:50:46;94513.25;;;14.23;46.96
85458;BME280;75848;42.706;23.292;2024-02-26T12:53:28;94501.75;;;14.28;46.70
85458;BME280;75848;42.706;23.292;2024-02-26T12:56:19;94511.13;;;14.36;46.48
85458;BME280;75848;42.706;23.292;2024-02-26T12:58:45;94500.22;;;14.27;46.19
85458;BME280;75848;42.706;23.292;2024-02-26T13:01:17;94504.16;;;14.35;46.68